createdAt,value
2023-04-18T00:01:08.207Z,9.30
2023-04-18T00:03:37.196Z,9.20
2023-04-18T00:06:04.711Z,9.20
2023-04-18T00:08:31.994Z,9.10
2023-04-18T00:10:59.740Z,9.00
2023-04-18T00:13:28.530Z,9.00
2023-04-18T00:15:55.809Z,8.90
2023-04-18T00:18:26.841Z,8.90
2023-04-18T00:20:54.259Z,8.80
2023-04-18T00:23:22.431Z,8.80
2023-04-18T00:25:49.704Z,8.80
2023-04-18T00:28:16.893Z,8.80
2023-04-18T00:30:44.113Z,8.80
2023-04-18T00:33:11.319Z,8.80
2023-04-18T00:35:38.747Z,8.90
2023-04-18T00:38:10.566Z,8.80
2023-04-18T00:40:38.534Z,8.90
2023-04-18T00:43:07.978Z,8.90
2023-04-18T00:45:35.484Z,8.90
2023-04-18T00:48:06.318Z,8.90
2023-04-18T00:50:36.976Z,8.90
2023-04-18T00:53:07.294Z,9.00
2023-04-18T00:55:34.475Z,8.90
2023-04-18T00:58:06.368Z,8.90
2023-04-18T01:00:36.353Z,8.90
2023-04-18T01:03:04.691Z,8.90
2023-04-18T01:05:31.898Z,8.90
2023-04-18T01:08:01.442Z,8.90
2023-04-18T01:10:29.264Z,8.80
2023-04-18T01:13:16.437Z,8.90
2023-04-18T01:15:44.456Z,8.90
2023-04-18T01:18:11.853Z,8.90
2023-04-18T01:20:43.720Z,8.90
2023-04-18T01:23:10.898Z,8.90
2023-04-18T01:25:38.577Z,9.00
2023-04-18T01:28:06.458Z,9.00
2023-04-18T01:30:36.728Z,9.00
2023-04-18T01:33:04.559Z,9.00
2023-04-18T01:35:32.772Z,9.00
2023-04-18T01:38:00.312Z,9.10
2023-04-18T01:40:27.947Z,9.10
2023-04-18T01:42:55.072Z,9.10
2023-04-18T01:45:22.579Z,9.00
2023-04-18T01:47:49.693Z,9.00
2023-04-18T01:50:17.142Z,9.00
2023-04-18T01:52:44.346Z,9.00
2023-04-18T01:55:11.535Z,9.00
2023-04-18T01:57:38.640Z,9.00
2023-04-18T02:00:06.801Z,8.90
2023-04-18T02:02:43.368Z,8.90
2023-04-18T02:05:10.914Z,9.10
2023-04-18T02:07:40.050Z,9.10
2023-04-18T02:10:08.380Z,9.10
2023-04-18T02:12:35.512Z,9.20
2023-04-18T02:15:02.788Z,9.20
2023-04-18T02:17:30.576Z,9.10
2023-04-18T02:19:57.846Z,9.10
2023-04-18T02:22:30.462Z,9.10
2023-04-18T02:24:57.687Z,9.10
2023-04-18T02:27:25.016Z,9.10
2023-04-18T02:29:56.534Z,9.00
2023-04-18T02:32:23.710Z,9.00
2023-04-18T02:34:50.927Z,9.00
2023-04-18T02:37:18.036Z,9.00
2023-04-18T02:39:45.384Z,9.00
2023-04-18T02:42:12.535Z,9.00
2023-04-18T02:44:39.780Z,9.10
2023-04-18T02:47:07.225Z,9.10
2023-04-18T02:49:39.621Z,9.10
2023-04-18T02:52:06.886Z,9.10
2023-04-18T02:54:34.778Z,9.10
2023-04-18T02:57:07.200Z,9.20
2023-04-18T03:00:00.006Z,9.20
2023-04-18T03:02:46.068Z,9.10
2023-04-18T03:05:36.407Z,9.20
2023-04-18T03:08:06.047Z,9.20
2023-04-18T03:10:34.885Z,9.20
2023-04-18T03:13:05.174Z,9.20
2023-04-18T03:15:34.169Z,9.10
2023-04-18T03:18:01.543Z,9.10
2023-04-18T03:20:33.215Z,9.10
2023-04-18T03:23:00.624Z,9.00
2023-04-18T03:25:30.165Z,9.00
2023-04-18T03:27:58.524Z,8.90
2023-04-18T03:30:26.693Z,9.00
2023-04-18T03:32:56.257Z,9.10
2023-04-18T03:35:23.916Z,9.10
2023-04-18T03:37:51.558Z,9.10
2023-04-18T03:40:25.559Z,9.00
2023-04-18T03:42:55.831Z,9.00
2023-04-18T03:45:22.945Z,8.90
2023-04-18T03:47:53.424Z,8.80
2023-04-18T03:50:24.483Z,8.70
2023-04-18T03:52:55.639Z,8.70
2023-04-18T03:55:22.850Z,8.60
2023-04-18T03:57:50.995Z,8.60
2023-04-18T04:00:27.336Z,8.50
2023-04-18T04:03:08.433Z,8.60
2023-04-18T04:05:36.289Z,8.60
2023-04-18T04:08:09.025Z,8.70
2023-04-18T04:10:36.379Z,8.70
2023-04-18T04:13:07.109Z,8.70
2023-04-18T04:15:38.739Z,8.60
2023-04-18T04:18:09.163Z,8.40
2023-04-18T04:20:40.295Z,8.30
2023-04-18T04:23:12.872Z,8.20
2023-04-18T04:25:41.385Z,8.20
2023-04-18T04:28:18.377Z,8.10
2023-04-18T04:30:53.334Z,8.00
2023-04-18T04:33:21.429Z,8.00
2023-04-18T04:35:49.833Z,7.90
2023-04-18T04:38:20.085Z,7.90
2023-04-18T04:40:48.970Z,7.80
2023-04-18T04:43:16.615Z,7.80
2023-04-18T04:45:45.527Z,7.80
2023-04-18T04:48:12.820Z,7.70
2023-04-18T04:50:40.740Z,7.60
2023-04-18T04:53:08.580Z,7.50
2023-04-18T04:55:36.358Z,7.50
2023-04-18T04:58:04.978Z,7.60
2023-04-18T05:00:54.054Z,7.50
2023-04-18T05:03:21.615Z,7.50
2023-04-18T05:05:49.117Z,7.60
2023-04-18T05:08:16.328Z,7.70
2023-04-18T05:10:43.515Z,7.70
2023-04-18T05:13:10.714Z,7.70
2023-04-18T05:15:38.149Z,7.80
2023-04-18T05:18:06.247Z,7.80
2023-04-18T05:20:36.164Z,7.70
2023-04-18T05:23:04.125Z,7.80
2023-04-18T05:25:31.818Z,7.80
2023-04-18T05:31:03.875Z,7.80
2023-04-18T05:33:31.752Z,7.80
2023-04-18T05:36:05.143Z,7.90
2023-04-18T05:38:40.498Z,7.90
2023-04-18T05:41:08.331Z,7.90
2023-04-18T05:43:35.692Z,7.80
2023-04-18T05:46:06.205Z,7.80
2023-04-18T05:48:37.914Z,7.80
2023-04-18T05:51:16.110Z,7.70
2023-04-18T05:53:47.304Z,7.70
2023-04-18T05:56:14.557Z,7.80
2023-04-18T05:58:57.120Z,7.80
2023-04-18T06:01:27.709Z,7.80
2023-04-18T06:04:04.589Z,7.80
2023-04-18T06:06:40.388Z,7.80
2023-04-18T06:09:07.903Z,7.80
2023-04-18T06:11:37.773Z,7.90
2023-04-18T06:14:08.730Z,7.80
2023-04-18T06:16:39.992Z,7.90
2023-04-18T06:19:12.462Z,7.90
2023-04-18T06:21:42.848Z,8.00
2023-04-18T06:24:21.563Z,7.90
2023-04-18T06:27:04.046Z,8.00
2023-04-18T06:29:38.155Z,8.10
2023-04-18T06:32:11.266Z,8.00
2023-04-18T06:34:39.112Z,8.00
2023-04-18T06:37:09.481Z,7.90
2023-04-18T06:39:37.943Z,7.90
2023-04-18T06:42:08.097Z,7.90
2023-04-18T06:44:44.759Z,7.90
2023-04-18T06:47:24.065Z,8.00
2023-04-18T06:49:54.370Z,8.10
2023-04-18T06:52:25.721Z,8.00
2023-04-18T06:54:58.792Z,8.00
2023-04-18T06:57:29.675Z,8.10
2023-04-18T07:00:07.326Z,8.00
2023-04-18T07:02:56.727Z,8.00
2023-04-18T07:05:24.313Z,8.20
2023-04-18T07:07:52.539Z,8.40
2023-04-18T07:10:24.729Z,8.60
2023-04-18T07:13:22.065Z,8.70
2023-04-18T07:18:57.322Z,8.80
2023-04-18T07:21:38.085Z,8.90
2023-04-18T07:24:20.841Z,8.90
2023-04-18T07:26:54.424Z,8.90
2023-04-18T07:29:41.365Z,8.90
2023-04-18T07:32:17.788Z,9.10
2023-04-18T07:35:08.630Z,9.00
2023-04-18T07:38:03.063Z,9.30
2023-04-18T07:41:00.355Z,9.30
2023-04-18T07:43:27.913Z,9.30
2023-04-18T07:45:55.389Z,9.30
2023-04-18T07:48:34.058Z,9.30
2023-04-18T07:51:04.761Z,9.20
2023-04-18T07:54:10.436Z,9.10
2023-04-18T07:56:39.616Z,9.40
2023-04-18T07:59:21.613Z,9.50
2023-04-18T08:02:09.575Z,9.60
2023-04-18T08:04:37.441Z,9.60
2023-04-18T08:07:26.804Z,9.70
2023-04-18T08:10:04.752Z,9.70
2023-04-18T08:13:09.627Z,9.60
2023-04-18T08:16:06.164Z,9.70
2023-04-18T08:18:43.980Z,9.90
2023-04-18T08:21:16.388Z,9.90
2023-04-18T08:24:12.013Z,10.00
2023-04-18T08:26:39.347Z,10.20
2023-04-18T08:29:09.392Z,10.30
2023-04-18T08:31:46.882Z,10.40
2023-04-18T08:34:29.456Z,10.40
2023-04-18T08:36:57.851Z,10.60
2023-04-18T08:39:52.783Z,10.60
2023-04-18T08:42:21.846Z,10.80
2023-04-18T08:45:16.446Z,10.90
2023-04-18T08:47:48.834Z,11.10
2023-04-18T08:50:17.568Z,11.20
2023-04-18T08:52:49.312Z,11.30
2023-04-18T08:55:33.755Z,11.60
2023-04-18T08:58:07.088Z,12.00
2023-04-18T09:00:35.442Z,12.30
2023-04-18T09:03:04.289Z,12.30
2023-04-18T09:05:45.763Z,12.60
2023-04-18T09:08:38.531Z,12.70
2023-04-18T09:11:29.694Z,12.70
2023-04-18T09:13:59.202Z,12.70
2023-04-18T09:19:43.281Z,12.30
2023-04-18T09:22:51.117Z,12.30
2023-04-18T09:25:59.972Z,12.10
2023-04-18T09:28:52.100Z,12.00
2023-04-18T09:31:26.703Z,11.70
2023-04-18T09:33:57.127Z,11.60
2023-04-18T09:36:25.121Z,11.40
2023-04-18T09:38:56.879Z,11.40
2023-04-18T09:41:25.042Z,11.40
2023-04-18T09:44:22.694Z,11.50
2023-04-18T09:46:54.259Z,11.40
2023-04-18T09:49:27.838Z,11.50
2023-04-18T09:52:15.543Z,11.40
2023-04-18T09:54:45.560Z,11.20
2023-04-18T09:57:17.756Z,11.20
2023-04-18T09:59:48.584Z,11.10
2023-04-18T10:02:21.035Z,11.10
2023-04-18T10:04:53.845Z,11.00
2023-04-18T10:07:21.197Z,11.10
2023-04-18T10:09:49.278Z,11.40
2023-04-18T10:12:18.536Z,11.70
2023-04-18T10:14:45.985Z,12.00
2023-04-18T10:17:14.981Z,11.90
2023-04-18T10:19:44.503Z,11.60
2023-04-18T10:22:11.864Z,11.40
2023-04-18T10:24:54.677Z,11.20
2023-04-18T10:27:49.929Z,11.10
2023-04-18T10:30:17.424Z,11.10
2023-04-18T10:32:46.744Z,11.20
2023-04-18T10:35:14.073Z,11.40
2023-04-18T10:37:53.563Z,11.40
2023-04-18T10:40:36.395Z,11.30
2023-04-18T10:43:07.494Z,11.20
2023-04-18T10:45:36.664Z,11.00
2023-04-18T10:48:30.299Z,11.00
2023-04-18T10:51:16.818Z,11.10
2023-04-18T10:53:54.611Z,11.10
2023-04-18T10:56:22.266Z,11.10
2023-04-18T10:58:54.854Z,11.10
2023-04-18T11:01:33.017Z,10.90
2023-04-18T11:04:02.098Z,10.80
2023-04-18T11:06:45.782Z,10.80
2023-04-18T11:09:19.688Z,10.70
2023-04-18T11:11:47.022Z,10.70
2023-04-18T11:14:14.563Z,10.70
2023-04-18T11:16:42.021Z,10.70
2023-04-18T11:19:22.626Z,10.70
2023-04-18T11:21:49.874Z,10.60
2023-04-18T11:24:27.100Z,10.60
2023-04-18T11:26:56.436Z,10.70
2023-04-18T11:30:37.395Z,10.90
2023-04-18T11:37:00.035Z,12.20
2023-04-18T11:40:20.739Z,12.10
2023-04-18T11:49:40.001Z,11.50
2023-04-18T11:53:26.944Z,11.20
2023-04-18T11:56:00.594Z,11.10
2023-04-18T11:58:44.914Z,11.30
2023-04-18T12:01:31.258Z,11.30
2023-04-18T12:05:22.583Z,11.30
2023-04-18T12:08:54.183Z,11.30
2023-04-18T12:11:21.802Z,11.50
2023-04-18T12:13:49.892Z,11.50
2023-04-18T12:16:17.158Z,11.30
2023-04-18T12:18:47.324Z,11.10
2023-04-18T12:21:17.443Z,11.10
2023-04-18T12:23:48.526Z,11.00
2023-04-18T12:26:22.827Z,10.90
2023-04-18T12:28:53.720Z,10.90
2023-04-18T12:34:27.641Z,11.00
2023-04-18T12:37:06.413Z,11.40
2023-04-18T12:39:36.676Z,11.70
2023-04-18T12:42:05.282Z,11.60
2023-04-18T12:44:37.050Z,11.40
2023-04-18T12:47:11.921Z,11.30
2023-04-18T12:49:42.718Z,11.10
2023-04-18T12:52:10.232Z,11.00
2023-04-18T12:55:10.571Z,11.00
2023-04-18T12:57:47.523Z,10.90
2023-04-18T13:00:17.321Z,11.00
2023-04-18T13:03:25.489Z,10.90
2023-04-18T13:05:56.465Z,10.90
2023-04-18T13:08:28.144Z,10.90
2023-04-18T13:10:55.831Z,10.90
2023-04-18T13:16:28.685Z,10.90
2023-04-18T13:19:04.224Z,10.80
2023-04-18T13:21:41.583Z,10.80
2023-04-18T13:24:09.202Z,11.00
2023-04-18T13:26:44.221Z,11.10
2023-04-18T13:29:17.217Z,11.20
2023-04-18T13:32:09.792Z,11.10
2023-04-18T13:34:40.847Z,11.10
2023-04-18T13:37:08.061Z,11.20
2023-04-18T13:39:42.776Z,11.20
2023-04-18T13:42:10.791Z,11.20
2023-04-18T13:44:57.709Z,11.20
2023-04-18T13:47:25.065Z,11.20
2023-04-18T13:49:52.396Z,11.30
2023-04-18T13:52:22.848Z,11.30
2023-04-18T13:54:51.978Z,11.60
2023-04-18T13:57:45.165Z,11.80
2023-04-18T14:03:11.486Z,11.90
2023-04-18T14:05:15.056Z,11.90
2023-04-18T14:08:05.199Z,11.90
2023-04-18T14:11:00.818Z,11.60
2023-04-18T14:13:30.824Z,11.50
2023-04-18T14:16:09.357Z,11.50
2023-04-18T14:18:37.275Z,11.40
2023-04-18T14:21:25.650Z,11.50
2023-04-18T14:24:12.537Z,11.40
2023-04-18T14:26:40.114Z,11.30
2023-04-18T14:29:11.658Z,11.30
2023-04-18T14:31:39.183Z,11.30
2023-04-18T14:34:08.450Z,11.30
2023-04-18T14:36:38.343Z,11.20
2023-04-18T14:39:26.015Z,11.20
2023-04-18T14:42:17.857Z,11.20
2023-04-18T14:44:58.166Z,11.10
2023-04-18T14:47:32.802Z,11.00
2023-04-18T14:50:55.181Z,10.70
2023-04-18T14:56:12.897Z,10.70
2023-04-18T14:58:49.541Z,10.70
2023-04-18T15:03:03.426Z,10.70
2023-04-18T15:11:08.756Z,11.10
2023-04-18T15:14:01.537Z,11.00
2023-04-18T15:16:29.379Z,11.10
2023-04-18T15:18:56.701Z,11.10
2023-04-18T15:21:23.836Z,11.10
2023-04-18T15:23:51.377Z,11.00
2023-04-18T15:26:18.592Z,10.90
2023-04-18T15:28:46.627Z,11.00
2023-04-18T15:31:15.931Z,11.00
2023-04-18T15:33:43.306Z,10.90
2023-04-18T15:36:18.729Z,10.90
2023-04-18T15:38:51.881Z,11.00
2023-04-18T15:41:35.901Z,11.00
2023-04-18T15:44:07.804Z,11.00
2023-04-18T15:46:36.531Z,10.90
2023-04-18T15:49:16.728Z,10.80
2023-04-18T15:51:44.751Z,10.90
2023-04-18T15:54:17.216Z,10.90
2023-04-18T15:56:52.934Z,10.90
2023-04-18T15:59:21.260Z,10.80
2023-04-18T16:01:49.312Z,10.70
2023-04-18T16:04:19.753Z,10.80
2023-04-18T16:07:06.513Z,10.90
2023-04-18T16:12:48.210Z,11.10
2023-04-18T16:15:22.460Z,11.20
2023-04-18T16:17:57.405Z,11.30
2023-04-18T16:20:34.206Z,11.30
2023-04-18T16:23:14.958Z,11.50
2023-04-18T16:25:56.198Z,11.40
2023-04-18T16:28:26.954Z,11.20
2023-04-18T16:31:01.864Z,11.10
2023-04-18T16:36:56.010Z,10.70
2023-04-18T16:39:24.149Z,10.60
2023-04-18T16:41:51.583Z,10.50
2023-04-18T16:44:21.584Z,10.60
2023-04-18T16:46:49.084Z,10.70
2023-04-18T16:49:50.856Z,10.70
2023-04-18T16:52:20.277Z,10.90
2023-04-18T16:55:23.248Z,11.30
2023-04-18T16:57:59.857Z,11.10
2023-04-18T17:00:38.238Z,10.90
2023-04-18T17:03:13.259Z,10.80
2023-04-18T17:05:41.259Z,10.70
2023-04-18T17:08:11.865Z,10.80
2023-04-18T17:11:01.164Z,10.70
2023-04-18T17:13:33.917Z,10.80
2023-04-18T17:19:13.326Z,10.90
2023-04-18T17:21:41.537Z,11.40
2023-04-18T17:24:16.899Z,11.30
2023-04-18T17:27:11.719Z,11.20
2023-04-18T17:29:59.641Z,11.10
2023-04-18T17:32:39.549Z,11.00
2023-04-18T17:35:11.130Z,10.90
2023-04-18T17:37:49.071Z,10.80
2023-04-18T17:40:18.990Z,10.80
2023-04-18T17:42:46.744Z,10.70
2023-04-18T17:45:14.113Z,10.70
2023-04-18T17:47:41.826Z,10.60
2023-04-18T17:50:18.389Z,10.60
2023-04-18T17:52:50.367Z,10.50
2023-04-18T17:55:17.594Z,10.50
2023-04-18T17:57:44.786Z,10.50
2023-04-18T18:00:13.866Z,10.50
2023-04-18T18:02:42.589Z,10.50
2023-04-18T18:05:13.751Z,10.50
2023-04-18T18:07:43.382Z,10.50
2023-04-18T18:10:11.889Z,10.50
2023-04-18T18:12:40.098Z,10.50
2023-04-18T18:15:15.114Z,10.50
2023-04-18T18:17:50.747Z,10.50
2023-04-18T18:23:42.695Z,10.40
2023-04-18T18:26:15.724Z,10.30
2023-04-18T18:28:58.621Z,10.20
2023-04-18T18:38:52.369Z,9.90
2023-04-18T18:41:23.835Z,9.70
2023-04-18T18:43:53.805Z,9.70
2023-04-18T18:46:24.560Z,9.60
2023-04-18T18:48:55.072Z,9.50
2023-04-18T18:51:24.094Z,9.40
2023-04-18T18:53:51.513Z,9.40
2023-04-18T18:56:18.781Z,9.30
2023-04-18T18:58:57.574Z,9.20
2023-04-18T19:01:42.389Z,9.20
2023-04-18T19:04:11.702Z,9.20
2023-04-18T19:06:39.650Z,9.10
2023-04-18T19:09:07.256Z,9.10
2023-04-18T19:11:34.637Z,9.00
2023-04-18T19:14:01.948Z,8.90
2023-04-18T19:16:34.303Z,8.90
2023-04-18T19:19:07.870Z,8.90
2023-04-18T19:21:35.176Z,8.80
2023-04-18T19:24:10.373Z,8.80
2023-04-18T19:26:42.392Z,8.80
2023-04-18T19:29:17.930Z,8.70
2023-04-18T19:31:46.062Z,8.70
2023-04-18T19:34:19.716Z,8.70
2023-04-18T19:36:47.216Z,8.70
2023-04-18T19:39:14.854Z,8.70
2023-04-18T19:41:42.330Z,8.70
2023-04-18T19:44:11.070Z,8.80
2023-04-18T19:47:11.076Z,8.90
2023-04-18T19:49:39.448Z,8.80
2023-04-18T19:52:06.714Z,8.70
2023-04-18T19:54:37.658Z,8.70
2023-04-18T19:57:22.242Z,8.70
2023-04-18T20:00:14.998Z,8.70
2023-04-18T20:02:43.950Z,8.80
2023-04-18T20:05:13.042Z,8.80
2023-04-18T20:07:43.250Z,8.90
2023-04-18T20:10:11.643Z,9.00
2023-04-18T20:12:41.619Z,9.00
2023-04-18T20:16:05.121Z,9.10
2023-04-18T20:19:06.204Z,9.20
2023-04-18T20:21:51.354Z,9.20
2023-04-18T20:24:51.225Z,9.20
2023-04-18T20:27:24.408Z,9.30
2023-04-18T20:29:57.312Z,9.30
2023-04-18T20:32:30.924Z,9.30
2023-04-18T20:35:04.073Z,9.30
2023-04-18T20:49:08.891Z,9.40
2023-04-18T20:52:24.929Z,9.50
2023-04-18T20:54:55.570Z,9.50
2023-04-18T21:01:18.692Z,9.60
2023-04-18T21:03:46.719Z,9.60
2023-04-18T21:06:14.690Z,9.50
2023-04-18T21:08:51.883Z,9.60
2023-04-18T21:11:36.952Z,9.60
2023-04-18T21:14:39.987Z,9.60
2023-04-18T21:17:08.173Z,9.60
2023-04-18T21:28:10.037Z,9.60
2023-04-18T21:30:43.010Z,9.60
2023-04-18T21:33:14.822Z,9.70
2023-04-18T21:39:21.336Z,9.70
2023-04-18T21:41:49.010Z,9.70
2023-04-18T21:44:22.690Z,9.70
2023-04-18T21:46:58.345Z,9.70
2023-04-18T21:49:26.169Z,9.70
2023-04-18T21:51:57.897Z,9.70
2023-04-18T21:54:31.414Z,9.70
2023-04-18T21:57:18.961Z,9.70
2023-04-18T21:59:53.638Z,9.70
2023-04-18T22:05:47.474Z,9.80
2023-04-18T22:08:17.799Z,9.80
2023-04-18T22:10:45.646Z,9.80
2023-04-18T22:13:40.127Z,9.70
2023-04-18T22:16:09.643Z,9.80
2023-04-18T22:18:38.154Z,9.70
2023-04-18T22:30:25.185Z,9.80
2023-04-18T22:33:14.655Z,9.70
2023-04-18T22:35:58.968Z,9.60
2023-04-18T22:38:26.426Z,9.70
2023-04-18T22:41:30.139Z,9.60
2023-04-18T22:44:06.333Z,9.60
2023-04-18T22:46:38.825Z,9.60
2023-04-18T22:49:08.981Z,9.60
2023-04-18T22:51:45.295Z,9.50
2023-04-18T22:54:15.188Z,9.40
2023-04-18T22:59:28.271Z,9.20
2023-04-18T23:01:57.704Z,9.10
